createdAt,value
2019-01-29T00:00:34.771Z,6.60
2019-01-29T00:03:03.443Z,6.80
2019-01-29T00:05:32.144Z,6.70
2019-01-29T00:08:00.848Z,6.70
2019-01-29T00:10:29.598Z,6.60
2019-01-29T00:12:58.333Z,6.50
2019-01-29T00:15:27.063Z,6.70
2019-01-29T00:17:55.719Z,6.70
2019-01-29T00:20:24.419Z,6.50
2019-01-29T00:22:53.149Z,6.30
2019-01-29T00:25:21.848Z,6.20
2019-01-29T00:27:50.743Z,6.30
2019-01-29T00:30:19.458Z,6.50
2019-01-29T00:32:48.169Z,6.10
2019-01-29T00:35:16.893Z,6.10
2019-01-29T00:37:45.612Z,6.20
2019-01-29T00:40:17.732Z,6.10
2019-01-29T00:42:46.430Z,6.20
2019-01-29T00:45:16.902Z,6.30
2019-01-29T00:47:45.611Z,6.30
2019-01-29T00:50:15.980Z,5.90
2019-01-29T00:52:44.977Z,6.10
2019-01-29T00:55:15.757Z,6.30
2019-01-29T00:57:44.457Z,6.50
2019-01-29T01:00:15.795Z,6.30
2019-01-29T01:02:44.628Z,6.40
2019-01-29T01:05:13.887Z,6.20
2019-01-29T01:07:42.599Z,6.30
2019-01-29T01:10:14.072Z,6.50
2019-01-29T01:12:42.776Z,6.60
2019-01-29T01:15:12.349Z,6.30
2019-01-29T01:17:41.053Z,6.60
2019-01-29T01:20:12.671Z,6.60
2019-01-29T01:22:41.354Z,6.90
2019-01-29T01:25:11.130Z,6.80
2019-01-29T01:27:39.850Z,6.90
2019-01-29T01:30:11.682Z,6.80
2019-01-29T01:32:40.342Z,6.50
2019-01-29T01:35:09.323Z,6.50
2019-01-29T01:37:38.023Z,6.80
2019-01-29T01:40:09.639Z,6.70
2019-01-29T01:42:38.347Z,6.90
2019-01-29T01:45:10.044Z,6.90
2019-01-29T01:47:38.773Z,7.00
2019-01-29T01:50:09.947Z,7.00
2019-01-29T01:52:38.658Z,6.50
2019-01-29T01:55:12.799Z,6.80
2019-01-29T01:57:41.650Z,6.60
2019-01-29T02:00:13.290Z,6.90
2019-01-29T02:02:42.020Z,6.90
2019-01-29T02:05:10.793Z,6.70
2019-01-29T02:07:39.515Z,7.00
2019-01-29T02:10:14.144Z,6.80
2019-01-29T02:12:42.851Z,6.50
2019-01-29T02:15:12.429Z,6.70
2019-01-29T02:17:41.303Z,6.50
2019-01-29T02:20:12.931Z,6.50
2019-01-29T02:22:41.639Z,6.60
2019-01-29T02:25:10.434Z,6.80
2019-01-29T02:27:39.112Z,6.90
2019-01-29T02:30:13.715Z,6.70
2019-01-29T02:32:42.379Z,6.40
2019-01-29T02:35:11.069Z,6.40
2019-01-29T02:37:39.754Z,6.40
2019-01-29T02:40:23.184Z,6.70
2019-01-29T02:42:51.878Z,6.70
2019-01-29T02:45:20.788Z,6.60
2019-01-29T02:47:49.463Z,6.20
2019-01-29T02:50:18.565Z,6.50
2019-01-29T02:52:47.398Z,6.40
2019-01-29T02:55:16.679Z,6.40
2019-01-29T02:57:45.463Z,6.20
2019-01-29T03:00:25.661Z,6.10
2019-01-29T03:02:54.688Z,6.20
2019-01-29T03:05:23.454Z,6.20
2019-01-29T03:07:52.628Z,6.50
2019-01-29T03:10:26.250Z,6.30
2019-01-29T03:12:55.063Z,5.90
2019-01-29T03:15:26.815Z,6.40
2019-01-29T03:17:56.651Z,6.30
2019-01-29T03:20:25.832Z,6.50
2019-01-29T03:22:54.606Z,6.60
2019-01-29T03:25:23.421Z,6.40
2019-01-29T03:27:52.120Z,6.40
2019-01-29T03:30:22.235Z,6.70
2019-01-29T03:32:50.920Z,6.60
2019-01-29T03:35:19.845Z,6.50
2019-01-29T03:37:48.770Z,6.60
2019-01-29T03:40:26.075Z,6.50
2019-01-29T03:42:54.752Z,6.20
2019-01-29T03:45:23.560Z,6.50
2019-01-29T03:47:52.239Z,6.50
2019-01-29T03:50:22.544Z,6.50
2019-01-29T03:52:51.460Z,6.30
2019-01-29T03:55:20.575Z,6.50
2019-01-29T03:57:49.996Z,6.40
2019-01-29T04:00:24.225Z,6.50
2019-01-29T04:02:52.935Z,6.60
2019-01-29T04:05:21.639Z,6.70
2019-01-29T04:07:50.458Z,6.40
2019-01-29T04:10:19.478Z,6.60
2019-01-29T04:12:48.150Z,6.60
2019-01-29T04:15:19.341Z,6.40
2019-01-29T04:17:48.019Z,6.60
2019-01-29T04:20:18.759Z,6.60
2019-01-29T04:22:47.679Z,6.60
2019-01-29T04:25:16.404Z,6.50
2019-01-29T04:27:45.212Z,6.60
2019-01-29T04:30:19.081Z,6.60
2019-01-29T04:32:47.756Z,6.50
2019-01-29T04:35:16.783Z,6.50
2019-01-29T04:37:45.563Z,6.40
2019-01-29T04:40:16.140Z,6.40
2019-01-29T04:42:44.856Z,6.50
2019-01-29T04:45:14.967Z,6.40
2019-01-29T04:47:43.648Z,6.50
2019-01-29T04:50:14.762Z,6.40
2019-01-29T04:52:43.442Z,6.30
2019-01-29T04:55:14.505Z,6.40
2019-01-29T04:57:43.212Z,6.50
2019-01-29T05:00:17.536Z,6.50
2019-01-29T05:02:46.236Z,6.30
2019-01-29T05:05:15.211Z,6.40
2019-01-29T05:07:43.938Z,6.60
2019-01-29T05:10:14.848Z,6.20
2019-01-29T05:12:43.626Z,6.50
2019-01-29T05:15:14.433Z,6.40
2019-01-29T05:17:43.296Z,6.40
2019-01-29T05:20:14.741Z,6.20
2019-01-29T05:22:43.444Z,6.60
2019-01-29T05:25:12.258Z,6.50
2019-01-29T05:27:40.936Z,6.50
2019-01-29T05:30:15.583Z,6.60
2019-01-29T05:32:44.298Z,6.30
2019-01-29T05:35:13.178Z,6.30
2019-01-29T05:37:41.851Z,6.30
2019-01-29T05:40:12.999Z,6.30
2019-01-29T05:42:41.716Z,6.30
2019-01-29T05:45:13.195Z,6.40
2019-01-29T05:47:42.201Z,6.20
2019-01-29T05:50:13.317Z,6.30
2019-01-29T05:52:42.154Z,6.20
2019-01-29T05:55:12.859Z,6.30
2019-01-29T05:57:41.572Z,6.40
2019-01-29T06:00:13.254Z,6.50
2019-01-29T06:02:41.959Z,6.40
2019-01-29T06:05:11.733Z,6.50
2019-01-29T06:07:40.459Z,6.30
2019-01-29T06:10:14.905Z,6.60
2019-01-29T06:12:43.760Z,6.40
2019-01-29T06:15:15.395Z,6.60
2019-01-29T06:17:44.067Z,6.30
2019-01-29T06:20:18.723Z,6.50
2019-01-29T06:22:47.500Z,6.40
2019-01-29T06:25:16.553Z,6.30
2019-01-29T06:27:45.531Z,6.20
2019-01-29T06:30:16.559Z,6.50
2019-01-29T06:32:45.375Z,6.40
2019-01-29T06:35:16.029Z,6.60
2019-01-29T06:37:45.231Z,6.40
2019-01-29T06:40:16.598Z,6.50
2019-01-29T06:42:45.299Z,6.30
2019-01-29T06:45:16.177Z,6.40
2019-01-29T06:47:45.082Z,6.70
2019-01-29T06:50:21.898Z,6.60
2019-01-29T06:52:50.615Z,6.50
2019-01-29T06:55:21.021Z,6.50
2019-01-29T06:57:55.258Z,6.50
2019-01-29T07:00:22.330Z,6.60
2019-01-29T07:02:51.412Z,6.60
2019-01-29T07:05:20.129Z,6.70
2019-01-29T07:07:48.803Z,6.90
2019-01-29T07:10:19.681Z,6.90
2019-01-29T07:12:48.398Z,6.50
2019-01-29T07:15:40.264Z,6.70
2019-01-29T07:18:11.044Z,6.90
2019-01-29T07:20:39.722Z,6.70
2019-01-29T07:23:08.457Z,6.60
2019-01-29T07:25:37.243Z,6.70
2019-01-29T07:28:05.924Z,6.60
2019-01-29T07:30:34.627Z,6.60
2019-01-29T07:33:03.303Z,6.70
2019-01-29T07:35:32.020Z,6.90
2019-01-29T07:38:00.719Z,6.70
2019-01-29T07:40:29.425Z,6.70
2019-01-29T07:42:58.170Z,6.80
2019-01-29T07:45:29.100Z,6.60
2019-01-29T07:47:57.914Z,6.60
2019-01-29T07:50:26.656Z,6.60
2019-01-29T07:52:55.441Z,6.60
2019-01-29T07:55:24.181Z,6.90
2019-01-29T07:57:52.858Z,6.90
2019-01-29T08:00:21.576Z,6.90
2019-01-29T08:02:50.265Z,6.60
2019-01-29T08:05:20.667Z,6.80
2019-01-29T08:07:49.520Z,6.60
2019-01-29T08:10:18.522Z,6.90
2019-01-29T08:12:47.193Z,6.80
2019-01-29T08:15:18.619Z,6.60
2019-01-29T08:17:47.323Z,6.70
2019-01-29T08:20:17.147Z,6.70
2019-01-29T08:22:46.064Z,6.80
2019-01-29T08:25:14.978Z,6.80
2019-01-29T08:27:43.690Z,6.80
2019-01-29T08:30:16.852Z,6.70
2019-01-29T08:32:45.682Z,6.60
2019-01-29T08:35:17.020Z,6.60
2019-01-29T08:37:45.837Z,6.60
2019-01-29T08:40:15.960Z,6.90
2019-01-29T08:42:44.665Z,6.60
2019-01-29T08:45:19.134Z,6.90
2019-01-29T08:47:48.139Z,7.00
2019-01-29T08:50:19.912Z,6.70
2019-01-29T08:52:48.704Z,7.00
2019-01-29T08:55:17.495Z,6.70
2019-01-29T08:57:46.221Z,6.70
2019-01-29T09:00:17.276Z,6.70
2019-01-29T09:02:47.811Z,7.00
2019-01-29T09:05:16.583Z,6.90
2019-01-29T09:07:45.395Z,6.80
2019-01-29T09:10:18.512Z,6.90
2019-01-29T09:12:47.220Z,6.90
2019-01-29T09:15:23.025Z,6.70
2019-01-29T09:17:51.843Z,7.10
2019-01-29T09:20:21.936Z,6.90
2019-01-29T09:22:50.646Z,7.00
2019-01-29T09:25:22.576Z,6.80
2019-01-29T09:27:49.989Z,7.10
2019-01-29T09:30:19.874Z,6.90
2019-01-29T09:32:48.563Z,7.00
2019-01-29T09:35:17.842Z,6.90
2019-01-29T09:37:48.012Z,6.90
2019-01-29T09:40:23.673Z,6.90
2019-01-29T09:42:52.478Z,7.00
2019-01-29T09:45:21.555Z,7.10
2019-01-29T09:47:50.460Z,7.00
2019-01-29T09:50:23.279Z,6.90
2019-01-29T09:52:52.773Z,7.00
2019-01-29T09:55:29.094Z,7.10
2019-01-29T09:57:53.897Z,6.80
2019-01-29T10:00:28.630Z,6.70
2019-01-29T10:02:57.409Z,7.00
2019-01-29T10:05:26.294Z,6.90
2019-01-29T10:07:55.016Z,7.00
2019-01-29T10:10:23.706Z,6.90
2019-01-29T10:12:52.396Z,7.40
2019-01-29T10:15:32.604Z,7.40
2019-01-29T10:18:01.323Z,7.10
2019-01-29T10:20:30.133Z,7.50
2019-01-29T10:22:58.812Z,7.30
2019-01-29T10:25:27.732Z,7.20
2019-01-29T10:27:56.411Z,7.20
2019-01-29T10:30:28.133Z,7.20
2019-01-29T10:32:56.940Z,7.30
2019-01-29T10:35:27.932Z,7.60
2019-01-29T10:37:56.675Z,7.60
2019-01-29T10:40:27.555Z,7.60
2019-01-29T10:42:58.050Z,7.30
2019-01-29T10:45:29.685Z,7.30
2019-01-29T10:47:58.398Z,7.10
2019-01-29T10:50:29.722Z,7.10
2019-01-29T10:52:58.691Z,7.10
2019-01-29T10:55:29.183Z,7.20
2019-01-29T10:57:58.208Z,7.50
2019-01-29T11:00:39.238Z,7.60
2019-01-29T11:03:08.629Z,7.60
2019-01-29T11:05:38.036Z,7.50
2019-01-29T11:08:07.119Z,7.50
2019-01-29T11:10:35.897Z,7.50
2019-01-29T11:13:07.122Z,7.30
2019-01-29T11:15:37.929Z,7.40
2019-01-29T11:18:09.613Z,7.50
2019-01-29T11:20:38.507Z,7.70
2019-01-29T11:23:07.215Z,7.60
2019-01-29T11:25:36.239Z,7.50
2019-01-29T11:28:05.213Z,7.70
2019-01-29T11:30:34.235Z,7.40
2019-01-29T11:33:02.998Z,7.50
2019-01-29T11:35:31.856Z,7.70
2019-01-29T11:38:00.523Z,7.60
2019-01-29T11:40:33.213Z,7.90
2019-01-29T11:43:01.915Z,7.70
2019-01-29T11:45:33.159Z,7.70
2019-01-29T11:48:01.899Z,7.90
2019-01-29T11:50:30.579Z,8.00
2019-01-29T11:52:59.249Z,7.90
2019-01-29T11:55:27.964Z,7.70
2019-01-29T11:57:56.695Z,7.80
2019-01-29T12:00:29.687Z,7.80
2019-01-29T12:02:58.369Z,7.60
2019-01-29T12:05:27.079Z,7.70
2019-01-29T12:07:55.833Z,7.60
2019-01-29T12:10:24.630Z,7.30
2019-01-29T12:12:53.355Z,7.30
2019-01-29T12:15:22.648Z,7.20
2019-01-29T12:17:51.356Z,6.90
2019-01-29T12:20:20.932Z,7.30
2019-01-29T12:22:49.814Z,7.10
2019-01-29T12:25:18.693Z,7.20
2019-01-29T12:27:47.389Z,7.10
2019-01-29T12:30:24.920Z,7.30
2019-01-29T12:32:56.276Z,7.50
2019-01-29T12:35:24.979Z,7.30
2019-01-29T12:37:53.670Z,7.20
2019-01-29T12:40:22.431Z,7.40
2019-01-29T12:42:51.243Z,7.50
2019-01-29T12:45:20.425Z,7.30
2019-01-29T12:47:49.348Z,7.50
2019-01-29T12:50:29.169Z,7.60
2019-01-29T12:53:03.797Z,7.50
2019-01-29T12:55:32.503Z,8.00
2019-01-29T12:58:01.311Z,7.60
2019-01-29T13:00:31.624Z,7.70
2019-01-29T13:03:00.499Z,8.00
2019-01-29T13:05:29.202Z,8.20
2019-01-29T13:07:57.900Z,8.20
2019-01-29T13:10:27.191Z,8.20
2019-01-29T13:12:56.084Z,7.80
2019-01-29T13:15:30.233Z,8.20
2019-01-29T13:18:00.307Z,8.20
2019-01-29T13:20:29.099Z,8.00
2019-01-29T13:22:57.816Z,8.10
2019-01-29T13:25:26.713Z,8.30
2019-01-29T13:27:55.380Z,7.90
2019-01-29T13:30:35.661Z,7.90
2019-01-29T13:33:09.579Z,7.70
2019-01-29T13:35:38.797Z,7.90
2019-01-29T13:38:09.204Z,7.70
2019-01-29T13:40:38.176Z,8.10
2019-01-29T13:43:07.668Z,7.90
2019-01-29T13:45:36.577Z,7.90
2019-01-29T13:48:05.772Z,7.90
2019-01-29T13:50:43.446Z,7.90
2019-01-29T13:53:12.114Z,7.90
2019-01-29T13:55:40.861Z,8.10
2019-01-29T13:58:09.926Z,7.80
2019-01-29T14:00:40.345Z,7.90
2019-01-29T14:03:11.259Z,8.00
2019-01-29T14:05:40.061Z,7.90
2019-01-29T14:08:08.839Z,8.20
2019-01-29T14:10:37.564Z,8.00
2019-01-29T14:13:06.349Z,8.20
2019-01-29T14:15:39.175Z,8.40
2019-01-29T14:18:08.084Z,8.60
2019-01-29T14:20:36.767Z,8.10
2019-01-29T14:23:06.511Z,7.90
2019-01-29T14:25:35.305Z,8.20
2019-01-29T14:28:03.977Z,7.90
2019-01-29T14:30:32.676Z,7.90
2019-01-29T14:33:01.347Z,7.80
2019-01-29T14:35:30.049Z,8.00
2019-01-29T14:38:01.669Z,8.10
2019-01-29T14:40:31.671Z,8.10
2019-01-29T14:43:00.351Z,8.20
2019-01-29T14:45:30.527Z,8.10
2019-01-29T14:47:59.272Z,8.10
2019-01-29T14:50:28.428Z,8.10
2019-01-29T14:52:57.139Z,7.80
2019-01-29T14:55:26.130Z,7.90
2019-01-29T14:57:54.804Z,7.90
2019-01-29T15:00:29.748Z,7.90
2019-01-29T15:02:58.451Z,7.80
2019-01-29T15:05:27.360Z,7.90
2019-01-29T15:07:56.207Z,8.00
2019-01-29T15:10:27.953Z,8.10
2019-01-29T15:12:56.751Z,7.90
2019-01-29T15:15:31.236Z,7.90
2019-01-29T15:18:01.499Z,7.80
2019-01-29T15:20:30.233Z,7.70
2019-01-29T15:22:58.988Z,7.80
2019-01-29T15:25:27.723Z,7.80
2019-01-29T15:27:56.406Z,7.80
2019-01-29T15:30:29.563Z,7.80
2019-01-29T15:32:58.271Z,7.80
2019-01-29T15:35:26.939Z,7.80
2019-01-29T15:37:55.657Z,7.70
2019-01-29T15:40:24.376Z,7.80
2019-01-29T15:42:53.299Z,7.80
2019-01-29T15:45:26.405Z,7.80
2019-01-29T15:47:55.314Z,7.70
2019-01-29T15:50:25.586Z,7.50
2019-01-29T15:52:54.286Z,7.70
2019-01-29T15:55:23.268Z,7.60
2019-01-29T15:57:51.976Z,7.80
2019-01-29T16:00:37.967Z,7.70
2019-01-29T16:03:06.676Z,7.60
2019-01-29T16:05:40.580Z,7.60
2019-01-29T16:08:11.754Z,7.80
2019-01-29T16:10:42.651Z,7.80
2019-01-29T16:13:11.391Z,7.90
2019-01-29T16:15:40.601Z,7.90
2019-01-29T16:18:11.003Z,7.80
2019-01-29T16:20:39.686Z,7.80
2019-01-29T16:23:09.085Z,7.90
2019-01-29T16:25:38.060Z,7.80
2019-01-29T16:28:06.781Z,7.60
2019-01-29T16:30:37.248Z,7.60
2019-01-29T16:33:05.953Z,7.80
2019-01-29T16:35:39.705Z,7.50
2019-01-29T16:38:09.117Z,7.50
2019-01-29T16:40:39.971Z,7.30
2019-01-29T16:43:08.676Z,7.30
2019-01-29T16:45:38.035Z,7.30
2019-01-29T16:48:08.692Z,7.20
2019-01-29T16:50:38.751Z,7.40
2019-01-29T16:53:09.054Z,7.30
2019-01-29T16:55:38.037Z,7.60
2019-01-29T16:58:08.613Z,7.20
2019-01-29T17:00:38.987Z,7.50
2019-01-29T17:03:07.696Z,7.40
2019-01-29T17:05:36.371Z,7.30
2019-01-29T17:08:05.781Z,7.10
2019-01-29T17:10:34.948Z,7.10
2019-01-29T17:13:04.056Z,7.30
2019-01-29T17:15:34.060Z,7.30
2019-01-29T17:18:03.265Z,7.20
2019-01-29T17:20:34.625Z,7.20
2019-01-29T17:23:04.747Z,7.10
2019-01-29T17:25:33.470Z,7.30
2019-01-29T17:28:02.178Z,7.20
2019-01-29T17:30:35.596Z,6.80
2019-01-29T17:33:04.795Z,7.00
2019-01-29T17:35:33.777Z,6.90
2019-01-29T17:38:02.486Z,7.00
2019-01-29T17:40:31.168Z,6.90
2019-01-29T17:42:59.859Z,7.00
2019-01-29T17:45:37.423Z,6.80
2019-01-29T17:48:06.335Z,7.00
2019-01-29T17:50:40.320Z,7.10
2019-01-29T17:53:09.019Z,7.00
2019-01-29T17:55:39.217Z,6.90
2019-01-29T17:58:08.931Z,6.90
2019-01-29T18:00:39.177Z,7.00
2019-01-29T18:03:08.087Z,7.00
2019-01-29T18:05:36.970Z,7.00
2019-01-29T18:08:05.670Z,7.00
2019-01-29T18:10:34.364Z,6.80
2019-01-29T18:13:03.422Z,6.80
2019-01-29T18:15:32.350Z,6.50
2019-01-29T18:18:01.030Z,6.60
2019-01-29T18:20:29.745Z,6.80
2019-01-29T18:22:58.835Z,6.80
2019-01-29T18:25:27.594Z,6.70
2019-01-29T18:28:01.256Z,6.70
2019-01-29T18:30:29.187Z,6.70
2019-01-29T18:32:57.844Z,6.80
2019-01-29T18:35:26.562Z,6.70
2019-01-29T18:37:55.222Z,6.60
2019-01-29T18:40:36.073Z,6.70
2019-01-29T18:43:04.851Z,6.80
2019-01-29T18:45:33.556Z,6.70
2019-01-29T18:48:02.231Z,6.50
2019-01-29T18:50:30.957Z,6.50
2019-01-29T18:52:59.690Z,6.30
2019-01-29T18:55:28.401Z,6.70
2019-01-29T18:57:57.118Z,6.50
2019-01-29T19:00:26.649Z,6.70
2019-01-29T19:02:55.339Z,6.60
2019-01-29T19:05:25.957Z,6.50
2019-01-29T19:07:54.739Z,6.80
2019-01-29T19:10:23.924Z,6.70
2019-01-29T19:12:52.657Z,6.30
2019-01-29T19:15:23.366Z,6.30
2019-01-29T19:17:52.193Z,6.70
2019-01-29T19:20:23.460Z,6.60
2019-01-29T19:22:52.351Z,6.40
2019-01-29T19:25:21.281Z,6.50
2019-01-29T19:27:50.034Z,6.70
2019-01-29T19:30:23.816Z,6.50
2019-01-29T19:32:52.586Z,6.70
2019-01-29T19:35:21.320Z,6.60
2019-01-29T19:37:50.053Z,6.40
2019-01-29T19:40:19.320Z,6.40
2019-01-29T19:42:48.148Z,6.40
2019-01-29T19:45:22.861Z,6.50
2019-01-29T19:47:51.580Z,6.50
2019-01-29T19:50:22.154Z,6.40
2019-01-29T19:52:50.970Z,6.50
2019-01-29T19:55:19.970Z,6.10
2019-01-29T19:57:48.714Z,6.40
2019-01-29T20:00:20.356Z,6.00
2019-01-29T20:02:49.073Z,6.20
2019-01-29T20:05:17.954Z,6.50
2019-01-29T20:07:46.681Z,6.30
2019-01-29T20:10:20.447Z,6.40
2019-01-29T20:12:49.356Z,6.00
2019-01-29T20:15:23.378Z,6.50
2019-01-29T20:17:53.496Z,6.40
2019-01-29T20:20:25.023Z,6.20
2019-01-29T20:22:53.911Z,6.50
2019-01-29T20:25:22.584Z,6.30
2019-01-29T20:27:53.110Z,6.40
2019-01-29T20:30:24.948Z,6.40
2019-01-29T20:32:53.911Z,6.40
2019-01-29T20:35:22.865Z,6.50
2019-01-29T20:37:51.701Z,6.50
2019-01-29T20:40:22.370Z,6.50
2019-01-29T20:42:51.055Z,6.20
2019-01-29T20:45:19.894Z,6.40
2019-01-29T20:47:48.677Z,6.20
2019-01-29T20:50:26.405Z,6.20
2019-01-29T20:52:55.121Z,6.20
2019-01-29T20:55:23.818Z,6.00
2019-01-29T20:57:52.508Z,6.40
2019-01-29T21:00:27.006Z,6.20
2019-01-29T21:02:55.695Z,6.00
2019-01-29T21:05:24.429Z,6.10
2019-01-29T21:07:53.116Z,6.00
2019-01-29T21:10:23.184Z,6.10
2019-01-29T21:12:51.882Z,6.20
2019-01-29T21:15:26.072Z,6.00
2019-01-29T21:17:55.080Z,6.40
2019-01-29T21:20:25.989Z,6.50
2019-01-29T21:22:54.663Z,6.30
2019-01-29T21:25:23.373Z,6.00
2019-01-29T21:27:52.073Z,6.30
2019-01-29T21:30:23.796Z,6.20
2019-01-29T21:32:52.506Z,6.00
2019-01-29T21:35:21.392Z,6.00
2019-01-29T21:37:50.117Z,6.20
2019-01-29T21:40:19.845Z,6.20
2019-01-29T21:42:49.859Z,6.40
2019-01-29T21:45:23.296Z,6.40
2019-01-29T21:47:53.713Z,6.40
2019-01-29T21:50:27.889Z,6.40
2019-01-29T21:52:56.723Z,6.10
2019-01-29T21:55:25.769Z,5.90
2019-01-29T21:57:54.517Z,6.20
2019-01-29T22:00:37.555Z,6.00
2019-01-29T22:03:06.861Z,6.20
2019-01-29T22:05:35.961Z,6.10
2019-01-29T22:08:05.112Z,6.00
2019-01-29T22:10:33.795Z,6.00
2019-01-29T22:13:02.606Z,6.20
2019-01-29T22:15:31.284Z,6.20
2019-01-29T22:18:00.082Z,5.90
2019-01-29T22:20:30.237Z,5.90
2019-01-29T22:22:58.955Z,6.20
2019-01-29T22:25:27.625Z,5.80
2019-01-29T22:27:56.308Z,6.20
2019-01-29T22:30:32.996Z,5.70
2019-01-29T22:33:01.768Z,5.70
2019-01-29T22:35:30.437Z,5.70
2019-01-29T22:37:59.147Z,5.90
2019-01-29T22:40:30.330Z,6.20
2019-01-29T22:43:00.096Z,5.90
2019-01-29T22:45:29.008Z,6.00
2019-01-29T22:47:57.726Z,6.20
2019-01-29T22:50:32.366Z,5.90
2019-01-29T22:53:01.093Z,6.10
2019-01-29T22:55:29.796Z,6.00
2019-01-29T22:57:58.772Z,6.20
2019-01-29T23:00:49.759Z,6.00
2019-01-29T23:03:20.530Z,6.10
2019-01-29T23:05:58.100Z,6.20
2019-01-29T23:08:26.761Z,6.00
2019-01-29T23:10:57.337Z,6.10
2019-01-29T23:13:26.016Z,6.20
2019-01-29T23:15:54.687Z,6.00
2019-01-29T23:18:23.384Z,5.70
2019-01-29T23:20:52.088Z,6.10
2019-01-29T23:23:22.253Z,5.70
2019-01-29T23:25:51.169Z,6.10
2019-01-29T23:28:19.835Z,6.10
2019-01-29T23:30:48.724Z,5.90
2019-01-29T23:33:17.508Z,5.70
2019-01-29T23:35:46.318Z,6.00
2019-01-29T23:38:15.008Z,6.00
2019-01-29T23:40:43.750Z,6.00
2019-01-29T23:43:12.546Z,5.90
2019-01-29T23:45:41.250Z,5.90
2019-01-29T23:48:09.922Z,5.90
2019-01-29T23:50:38.673Z,6.00
2019-01-29T23:53:07.373Z,5.70
2019-01-29T23:55:36.173Z,5.70
2019-01-29T23:58:05.397Z,5.70
